Time;durP1;ratioP1;P1;durP2;ratioP2;P2;SDS_P1;SDS_P2;PMS_P1;PMS_P2;Temp;Humidity;BMP_temperature;BMP_pressure;BME280_temperature;BME280_humidity;BME280_pressure;Samples;Min_cycle;Max_cycle;Signal;HPM_P1;HPM_P2
2023/03/03 00:00:53;;;;;;;32.60;19.53;;;;;;;-0.65;59.44;101268.41;20408077;29;20208;-81
2023/03/03 00:10:55;;;;;;;31.03;18.77;;;;;;;-0.22;58.23;101275.41;20409714;29;20636;-81
2023/03/03 00:21:00;;;;;;;29.20;17.50;;;;;;;-0.42;57.62;101271.09;20396280;29;20200;-81
2023/03/03 00:31:23;;;;;;;30.67;18.03;;;;;;;0.46;55.55;101271.66;20404033;29;20283;-80
2023/03/03 00:41:26;;;;;;;32.70;18.57;;;;;;;0.42;55.80;101276.88;20411756;28;20243;-80
2023/03/03 00:51:30;;;;;;;29.43;17.83;;;;;;;0.20;56.24;101282.31;20401851;29;20282;-82
2023/03/03 01:01:33;;;;;;;31.33;16.67;;;;;;;0.07;56.21;101285.41;20413310;29;20207;-82
2023/03/03 01:11:35;;;;;;;31.53;17.30;;;;;;;0.12;56.89;101282.72;20440696;29;20552;-81
2023/03/03 01:21:38;;;;;;;32.53;17.90;;;;;;;0.16;56.71;101288.63;20476799;28;20195;-81
2023/03/03 01:31:40;;;;;;;28.70;17.47;;;;;;;-0.22;57.26;101280.94;20427580;29;20255;-81
2023/03/03 01:41:43;;;;;;;32.47;17.90;;;;;;;0.28;56.08;101287.47;20398213;29;20208;-81
2023/03/03 01:51:52;;;;;;;29.00;18.57;;;;;;;-0.03;56.81;101285.19;20443550;29;20276;-81
2023/03/03 02:01:54;;;;;;;29.50;17.00;;;;;;;-0.01;57.21;101288.56;20386291;29;20189;-81
2023/03/03 02:12:00;;;;;;;26.87;15.33;;;;;;;0.40;55.02;101267.09;20381470;29;20621;-81
2023/03/03 02:22:02;;;;;;;28.57;17.37;;;;;;;0.34;56.22;101265.34;20387491;29;20255;-82
2023/03/03 02:32:05;;;;;;;27.93;16.93;;;;;;;0.04;57.57;101280.34;20487374;29;20278;-79
2023/03/03 02:42:11;;;;;;;29.20;17.47;;;;;;;0.06;56.85;101283.72;20405270;29;20221;-81
2023/03/03 02:52:22;;;;;;;28.20;16.53;;;;;;;-0.03;56.97;101279.63;20363738;29;20275;-81
2023/03/03 03:02:26;;;;;;;31.87;18.07;;;;;;;0.10;57.01;101271.00;20376660;29;20200;-81
2023/03/03 03:12:30;;;;;;;38.43;21.70;;;;;;;-0.41;58.39;101283.88;20458845;28;20487;-79
2023/03/03 03:22:34;;;;;;;38.67;21.37;;;;;;;0.24;57.05;101279.88;20408392;29;20256;-81
2023/03/03 03:32:37;;;;;;;48.50;26.63;;;;;;;-0.01;57.55;101280.25;20422813;29;20335;-81
2023/03/03 03:42:41;;;;;;;49.50;27.97;;;;;;;0.19;56.50;101288.97;20401698;29;20471;-81
2023/03/03 03:52:43;;;;;;;40.60;22.70;;;;;;;-0.50;58.20;101309.50;20396981;29;20216;-77
2023/03/03 04:02:46;;;;;;;37.77;20.53;;;;;;;0.12;56.10;101309.63;20392682;29;20193;-82
2023/03/03 04:12:50;;;;;;;51.67;26.30;;;;;;;-0.56;58.97;101314.06;20423322;29;20221;-81
2023/03/03 04:22:52;;;;;;;57.47;29.43;;;;;;;-0.33;58.60;101317.91;20386438;29;20589;-81
2023/03/03 04:32:54;;;;;;;49.30;25.63;;;;;;;-0.04;57.20;101314.03;20424853;29;20737;-81
2023/03/03 04:43:00;;;;;;;45.17;23.47;;;;;;;-0.09;57.09;101305.63;20408529;29;20668;-82
2023/03/03 04:53:02;;;;;;;32.40;17.97;;;;;;;0.21;56.07;101313.72;20416914;29;20628;-80
2023/03/03 05:03:05;;;;;;;32.60;17.20;;;;;;;-0.24;58.11;101316.41;20407340;29;20208;-81
2023/03/03 05:13:08;;;;;;;30.10;16.27;;;;;;;-0.15;57.15;101310.22;20406974;29;20224;-80
2023/03/03 05:23:10;;;;;;;30.27;16.87;;;;;;;0.27;56.20;101307.16;20436104;29;20534;-81
2023/03/03 05:33:13;;;;;;;29.73;16.23;;;;;;;-0.10;57.56;101313.09;20411163;29;20220;-81
2023/03/03 05:43:16;;;;;;;27.10;14.37;;;;;;;-0.39;57.41;101319.72;20403867;29;20517;-81
2023/03/03 05:53:18;;;;;;;29.20;15.53;;;;;;;-0.98;59.63;101318.09;20414750;29;20223;-81
2023/03/03 06:03:20;;;;;;;28.17;15.27;;;;;;;-0.24;57.27;101324.75;20413237;29;20251;-81
2023/03/03 06:13:23;;;;;;;32.03;15.33;;;;;;;0.52;54.96;101337.31;20390473;29;20221;-83
2023/03/03 14:17:04;;;;;;;46.50;26.53;;;;;;;2.90;45.40;101421.38;21539874;23;20587;-78
2023/03/03 14:27:22;;;;;;;43.33;25.73;;;;;;;2.89;45.96;101419.69;20290132;29;20258;-84
2023/03/03 14:37:25;;;;;;;42.53;26.30;;;;;;;3.24;44.92;101404.38;20508494;28;20286;-85
2023/03/03 14:47:29;;;;;;;39.10;23.97;;;;;;;2.64;46.04;101405.47;20473544;29;20200;-78
2023/03/03 14:57:44;;;;;;;36.97;22.77;;;;;;;3.03;44.96;101398.63;20490892;29;20223;-86
2023/03/03 15:07:52;;;;;;;35.83;22.33;;;;;;;3.35;44.20;101386.59;20470645;28;20199;-82
2023/03/03 15:18:01;;;;;;;38.57;23.50;;;;;;;2.49;45.52;101385.78;20450152;29;20223;-83
2023/03/03 15:28:25;;;;;;;28.30;18.47;;;;;;;2.09;47.17;101385.06;20456629;28;20437;-86
2023/03/03 15:38:41;;;;;;;29.37;18.00;;;;;;;2.79;45.67;101375.00;20468498;29;20266;-81
2023/03/03 15:49:21;;;;;;;31.93;18.23;;;;;;;2.96;45.63;101364.53;20455132;28;20286;-83
2023/03/03 15:59:25;;;;;;;25.50;14.47;;;;;;;3.20;45.96;101358.59;20469645;29;20278;-84
2023/03/03 16:09:56;;;;;;;22.57;12.80;;;;;;;3.00;45.89;101354.53;20425880;29;20639;-82
2023/03/03 16:20:06;;;;;;;20.33;12.33;;;;;;;3.50;44.45;101353.19;20444595;28;20281;-84
2023/03/03 16:30:34;;;;;;;18.50;10.63;;;;;;;2.94;46.06;101352.81;20489378;28;20273;-84
2023/03/03 16:40:54;;;;;;;23.50;10.07;;;;;;;2.96;46.54;101350.56;20492536;28;20199;-85
2023/03/03 16:51:11;;;;;;;18.17;10.47;;;;;;;3.04;46.04;101352.91;20461071;28;20223;-84
2023/03/03 17:01:27;;;;;;;19.70;11.47;;;;;;;2.86;46.69;101363.59;20474723;28;20199;-84
2023/03/03 17:11:29;;;;;;;17.43;10.80;;;;;;;2.77;46.81;101371.63;20482159;28;20227;-82
2023/03/03 17:21:43;;;;;;;21.20;12.87;;;;;;;2.32;47.17;101377.53;20479951;28;20227;-87
2023/03/03 17:32:23;;;;;;;25.63;13.80;;;;;;;2.22;47.62;101386.63;20451307;29;20515;-82
2023/03/03 17:42:44;;;;;;;27.57;16.30;;;;;;;2.03;47.79;101396.41;20332588;29;20208;-84
2023/03/03 17:53:06;;;;;;;30.00;16.60;;;;;;;2.15;47.47;101391.56;20487083;28;20766;-80
2023/03/03 18:03:13;;;;;;;35.37;19.30;;;;;;;1.82;48.35;101400.88;20487892;29;20199;-87
2023/03/03 18:13:35;;;;;;;44.03;21.80;;;;;;;1.37;49.11;101409.41;20455043;29;20258;-81
2023/03/03 18:23:44;;;;;;;31.83;17.77;;;;;;;1.01;50.36;101419.88;20453695;29;20203;-80
2023/03/03 18:34:19;;;;;;;34.27;20.37;;;;;;;1.22;49.50;101414.72;20467894;29;20631;-80
2023/03/03 18:44:29;;;;;;;44.70;26.37;;;;;;;1.78;49.03;101423.91;20464044;28;20203;-83
2023/03/03 18:54:33;;;;;;;42.47;22.90;;;;;;;1.67;49.71;101434.03;20469762;29;20242;-83
2023/03/03 19:04:36;;;;;;;53.03;30.60;;;;;;;2.19;48.71;101434.47;20449281;29;21061;-79
2023/03/03 19:14:39;;;;;;;85.10;42.13;;;;;;;2.05;49.11;101438.75;20437796;29;20235;-82
2023/03/03 19:25:01;;;;;;;56.50;31.40;;;;;;;2.14;49.17;101440.00;20455786;29;20215;-81
2023/03/03 19:35:31;;;;;;;35.80;21.80;;;;;;;1.85;50.02;101441.28;20447939;28;20262;-82
2023/03/03 19:45:58;;;;;;;33.40;20.40;;;;;;;1.64;51.52;101441.00;20456623;29;20192;-85
2023/03/03 19:56:06;;;;;;;38.80;22.07;;;;;;;1.39;51.42;101441.41;20461910;28;20242;-82
2023/03/03 20:06:23;;;;;;;42.53;22.83;;;;;;;1.08;52.80;101442.00;20468784;29;20656;-85
2023/03/03 20:16:40;;;;;;;71.53;40.83;;;;;;;1.96;50.96;101434.75;20454136;29;20310;-83
2023/03/03 20:27:00;;;;;;;46.83;26.50;;;;;;;2.10;50.09;101433.25;20456264;28;20204;-85
2023/03/03 20:37:09;;;;;;;40.97;23.60;;;;;;;1.17;52.35;101426.56;20472693;29;20278;-82
2023/03/03 20:47:30;;;;;;;37.87;22.53;;;;;;;1.14;52.59;101440.13;20452845;29;20199;-82
2023/03/03 20:57:45;;;;;;;39.70;23.53;;;;;;;1.62;52.12;101432.06;20414368;28;20274;-82
2023/03/03 21:08:02;;;;;;;37.07;22.87;;;;;;;2.08;51.08;101430.72;20478416;28;20203;-82
2023/03/03 21:18:26;;;;;;;41.93;25.27;;;;;;;1.84;52.03;101439.59;20453959;28;20317;-82
2023/03/03 21:28:33;;;;;;;37.20;22.43;;;;;;;2.31;49.84;101435.19;20488364;29;20207;-82
2023/03/03 21:38:38;;;;;;;30.03;19.30;;;;;;;2.20;49.29;101436.16;20459719;28;20631;-82
2023/03/03 21:48:41;;;;;;;29.77;19.30;;;;;;;2.35;49.46;101419.66;20452426;29;20208;-82
2023/03/03 21:58:43;;;;;;;32.73;19.23;;;;;;;2.62;48.25;101418.81;20458272;29;20523;-84
2023/03/03 22:08:45;;;;;;;27.07;16.13;;;;;;;2.44;48.89;101429.22;20477947;28;20199;-82
2023/03/03 22:18:48;;;;;;;27.20;16.23;;;;;;;2.98;47.21;101429.25;20511270;28;20227;-82
2023/03/03 22:28:50;;;;;;;25.00;14.80;;;;;;;2.57;48.22;101427.97;20475631;29;20594;-83
2023/03/03 22:38:52;;;;;;;20.73;11.73;;;;;;;2.16;48.90;101431.41;20473918;29;20214;-82
2023/03/03 22:48:54;;;;;;;20.60;9.40;;;;;;;2.84;47.26;101416.00;20492743;29;20465;-82
2023/03/03 22:58:56;;;;;;;15.07;7.87;;;;;;;2.16;48.55;101426.66;20481949;29;20222;-81
2023/03/03 23:08:58;;;;;;;14.63;6.87;;;;;;;2.69;47.30;101403.56;20490454;28;20207;-82
2023/03/03 23:19:00;;;;;;;8.40;5.40;;;;;;;2.52;48.01;101415.94;20476456;29;20231;-83
2023/03/03 23:29:03;;;;;;;12.23;4.93;;;;;;;2.69;47.61;101419.44;20486036;28;20196;-84
2023/03/03 23:39:06;;;;;;;11.07;6.23;;;;;;;2.96;47.03;101420.31;20465862;29;20215;-81
2023/03/03 23:49:08;;;;;;;14.83;7.43;;;;;;;3.13;47.05;101414.59;20475307;29;20199;-83
2023/03/03 23:59:10;;;;;;;11.83;6.57;;;;;;;2.84;47.31;101410.44;20486439;29;20242;-84
